createdAt,value
2017-05-27T00:00:52.964Z,1018.35
2017-05-27T00:02:03.246Z,1018.34
2017-05-27T00:03:13.527Z,1018.33
2017-05-27T00:04:23.749Z,1018.37
2017-05-27T00:05:34.105Z,1018.37
2017-05-27T00:06:44.383Z,1018.36
2017-05-27T00:07:54.663Z,1018.36
2017-05-27T00:09:04.647Z,1018.39
2017-05-27T00:10:15.178Z,1018.38
2017-05-27T00:11:25.464Z,1018.37
2017-05-27T00:12:35.427Z,1018.32
2017-05-27T00:13:45.719Z,1018.39
2017-05-27T00:14:56.003Z,1018.4
2017-05-27T00:16:06.228Z,1018.36
2017-05-27T00:17:16.508Z,1018.37
2017-05-27T00:18:26.472Z,1018.39
2017-05-27T00:19:36.757Z,1018.38
2017-05-27T00:20:46.736Z,1018.38
2017-05-27T00:21:57.263Z,1018.4
2017-05-27T00:23:07.546Z,1018.39
2017-05-27T00:24:17.516Z,1018.42
2017-05-27T00:25:27.485Z,1018.41
2017-05-27T00:26:37.463Z,1018.42
2017-05-27T00:27:48.010Z,1018.41
2017-05-27T00:28:58.310Z,1018.41
2017-05-27T00:30:08.586Z,1018.41
2017-05-27T00:31:18.559Z,1018.41
2017-05-27T00:32:28.228Z,1018.43
2017-05-27T00:33:38.831Z,1018.39
2017-05-27T00:34:49.102Z,1018.42
2017-05-27T00:35:59.393Z,1018.44
2017-05-27T00:37:09.673Z,1018.44
2017-05-27T00:38:19.698Z,1018.43
2017-05-27T00:39:30.225Z,1018.44
2017-05-27T00:40:40.198Z,1018.43
2017-05-27T00:41:50.475Z,1018.47
2017-05-27T00:43:00.449Z,1018.43
2017-05-27T00:44:10.736Z,1018.49
2017-05-27T00:45:21.272Z,1018.49
2017-05-27T00:46:31.557Z,1018.5
2017-05-27T00:47:41.221Z,1018.49
2017-05-27T00:48:51.188Z,1018.46
2017-05-27T00:50:01.165Z,1018.51
2017-05-27T00:51:11.701Z,1018.53
2017-05-27T00:52:21.984Z,1018.57
2017-05-27T00:53:32.258Z,1018.58
2017-05-27T00:54:42.549Z,1018.6
2017-05-27T00:55:52.530Z,1018.57
2017-05-27T00:57:03.062Z,1018.62
2017-05-27T00:58:13.353Z,1018.63
2017-05-27T00:59:23.634Z,1018.64
2017-05-27T01:00:33.925Z,1018.64
2017-05-27T01:01:43.888Z,1018.66
2017-05-27T01:02:54.418Z,1018.66
2017-05-27T01:04:04.703Z,1018.62
2017-05-27T01:05:14.974Z,1018.63
2017-05-27T01:06:25.263Z,1018.67
2017-05-27T01:07:35.230Z,1018.66
2017-05-27T01:08:45.770Z,1018.64
2017-05-27T01:09:55.751Z,1018.7
2017-05-27T01:11:06.028Z,1018.65
2017-05-27T01:12:16.014Z,1018.67
2017-05-27T01:13:25.990Z,1018.66
2017-05-27T01:14:36.530Z,1018.66
2017-05-27T01:15:46.496Z,1018.68
2017-05-27T01:16:56.771Z,1018.66
2017-05-27T01:18:07.051Z,1018.68
2017-05-27T01:19:17.338Z,1018.67
2017-05-27T01:20:27.917Z,1018.66
2017-05-27T01:21:37.914Z,1018.71
2017-05-27T01:22:48.196Z,1018.7
2017-05-27T01:23:58.485Z,1018.71
2017-05-27T01:25:08.757Z,1018.74
2017-05-27T01:26:19.303Z,1018.78
2017-05-27T01:27:29.588Z,1018.75
2017-05-27T01:28:39.873Z,1018.77
2017-05-27T01:29:50.163Z,1018.78
2017-05-27T01:31:00.459Z,1018.78
2017-05-27T01:32:10.367Z,1018.84
2017-05-27T01:33:20.024Z,1018.82
2017-05-27T01:34:29.991Z,1018.82
2017-05-27T01:35:39.955Z,1018.78
2017-05-27T01:36:49.931Z,1018.79
2017-05-27T01:38:00.470Z,1018.83
2017-05-27T01:39:10.758Z,1018.79
2017-05-27T01:40:20.727Z,1018.84
2017-05-27T01:41:30.699Z,1018.86
2017-05-27T01:42:40.977Z,1018.88
2017-05-27T01:43:51.507Z,1018.88
2017-05-27T01:45:01.781Z,1018.91
2017-05-27T01:46:11.744Z,1018.88
2017-05-27T01:47:22.034Z,1018.88
2017-05-27T01:48:32.002Z,1018.9
2017-05-27T01:49:42.252Z,1018.93
2017-05-27T01:50:52.526Z,1018.88
2017-05-27T01:52:02.803Z,1018.86
2017-05-27T01:53:12.774Z,1018.87
2017-05-27T01:54:23.062Z,1018.86
2017-05-27T01:55:33.654Z,1018.86
2017-05-27T01:56:43.005Z,1018.87
2017-05-27T01:57:53.286Z,1018.88
2017-05-27T01:59:03.564Z,1018.89
2017-05-27T02:00:13.847Z,1018.87
2017-05-27T02:01:24.109Z,1018.9
2017-05-27T02:02:33.777Z,1018.85
2017-05-27T02:03:44.049Z,1018.86
2017-05-27T02:04:54.333Z,1018.86
2017-05-27T02:06:04.045Z,1018.87
2017-05-27T02:07:13.948Z,1018.9
2017-05-27T02:08:24.237Z,1018.92
2017-05-27T02:09:34.510Z,1018.9
2017-05-27T02:10:44.880Z,1018.91
2017-05-27T02:11:55.165Z,1018.9
2017-05-27T02:13:05.698Z,1018.89
2017-05-27T02:14:15.982Z,1018.9
2017-05-27T02:15:25.953Z,1018.88
2017-05-27T02:16:35.602Z,1018.9
2017-05-27T02:17:45.883Z,1018.91
2017-05-27T02:18:56.423Z,1018.9
2017-05-27T02:20:06.707Z,1018.85
2017-05-27T02:21:16.985Z,1018.88
2017-05-27T02:22:27.322Z,1018.86
2017-05-27T02:23:37.602Z,1018.89
2017-05-27T02:24:47.508Z,1018.92
2017-05-27T02:25:57.813Z,1018.89
2017-05-27T02:27:08.088Z,1018.93
2017-05-27T02:28:18.059Z,1018.94
2017-05-27T02:29:28.027Z,1018.91
2017-05-27T02:30:38.549Z,1018.93
2017-05-27T02:31:48.516Z,1018.92
2017-05-27T02:32:58.790Z,1018.87
2017-05-27T02:34:09.075Z,1018.86
2017-05-27T02:35:19.344Z,1018.89
2017-05-27T02:36:29.560Z,1018.96
2017-05-27T02:37:39.536Z,1018.9
2017-05-27T02:38:49.513Z,1018.91
2017-05-27T02:39:59.793Z,1018.9
2017-05-27T02:41:10.064Z,1018.95
2017-05-27T02:42:20.594Z,1018.95
2017-05-27T02:43:30.910Z,1018.96
2017-05-27T02:44:41.204Z,1018.94
2017-05-27T02:45:51.477Z,1018.96
2017-05-27T02:47:01.442Z,1018.96
2017-05-27T02:48:11.974Z,1018.96
2017-05-27T02:49:21.643Z,1018.94
2017-05-27T02:50:31.547Z,1018.94
2017-05-27T02:51:41.513Z,1018.97
2017-05-27T02:52:51.845Z,1018.99
2017-05-27T02:54:01.771Z,1018.99
2017-05-27T02:55:12.147Z,1019.03
2017-05-27T02:56:22.419Z,1019.01
2017-05-27T02:57:32.702Z,1019.04
2017-05-27T02:58:42.986Z,1018.99
2017-05-27T02:59:53.564Z,1019.05
2017-05-27T03:01:03.854Z,1019.02
2017-05-27T03:02:14.135Z,1019.04
2017-05-27T03:03:24.421Z,1019.05
2017-05-27T03:04:34.697Z,1019.03
2017-05-27T03:05:45.232Z,1019.06
2017-05-27T03:06:55.508Z,1019.07
2017-05-27T03:08:05.474Z,1019.05
2017-05-27T03:09:15.761Z,1019.06
2017-05-27T03:10:26.064Z,1019.06
2017-05-27T03:11:36.649Z,1019.11
2017-05-27T03:12:46.614Z,1019.11
2017-05-27T03:13:56.903Z,1019.12
2017-05-27T03:15:06.880Z,1019.12
2017-05-27T03:16:16.845Z,1019.17
2017-05-27T03:17:27.370Z,1019.14
2017-05-27T03:18:37.341Z,1019.16
2017-05-27T03:19:47.623Z,1019.17
2017-05-27T03:20:57.894Z,1019.2
2017-05-27T03:22:07.861Z,1019.18
2017-05-27T03:23:18.382Z,1019.21
2017-05-27T03:24:28.667Z,1019.19
2017-05-27T03:25:38.946Z,1019.19
2017-05-27T03:26:49.230Z,1019.19
2017-05-27T03:27:59.196Z,1019.2
2017-05-27T03:29:09.732Z,1019.24
2017-05-27T03:30:20.015Z,1019.24
2017-05-27T03:31:29.985Z,1019.19
2017-05-27T03:32:39.948Z,1019.21
2017-05-27T03:33:50.232Z,1019.21
2017-05-27T03:35:00.772Z,1019.25
2017-05-27T03:36:10.736Z,1019.21
2017-05-27T03:37:21.014Z,1019.18
2017-05-27T03:38:30.985Z,1019.19
2017-05-27T03:39:40.643Z,1019.22
2017-05-27T03:40:50.855Z,1019.2
2017-05-27T03:42:01.150Z,1019.23
2017-05-27T03:43:11.115Z,1019.24
2017-05-27T03:44:21.084Z,1019.26
2017-05-27T03:45:31.370Z,1019.26
2017-05-27T03:46:41.590Z,1019.22
2017-05-27T03:47:51.562Z,1019.22
2017-05-27T03:49:01.849Z,1019.28
2017-05-27T03:50:12.127Z,1019.22
2017-05-27T03:51:22.416Z,1019.2
2017-05-27T03:52:32.638Z,1019.2
2017-05-27T03:53:42.291Z,1019.22
2017-05-27T03:54:52.579Z,1019.25
2017-05-27T03:56:02.882Z,1019.29
2017-05-27T03:57:13.171Z,1019.29
2017-05-27T03:58:23.702Z,1019.31
2017-05-27T03:59:33.359Z,1019.31
2017-05-27T04:00:43.663Z,1019.31
2017-05-27T04:01:53.955Z,1019.37
2017-05-27T04:03:04.247Z,1019.42
2017-05-27T04:04:14.783Z,1019.41
2017-05-27T04:05:25.064Z,1019.39
2017-05-27T04:06:35.349Z,1019.39
2017-05-27T04:07:45.359Z,1019.39
2017-05-27T04:08:55.328Z,1019.44
2017-05-27T04:10:05.642Z,1019.43
2017-05-27T04:11:15.927Z,1019.47
2017-05-27T04:12:26.204Z,1019.43
2017-05-27T04:13:36.501Z,1019.51
2017-05-27T04:14:46.776Z,1019.51
2017-05-27T04:15:57.312Z,1019.48
2017-05-27T04:17:07.275Z,1019.43
2017-05-27T04:18:17.245Z,1019.45
2017-05-27T04:19:27.531Z,1019.47
2017-05-27T04:20:37.511Z,1019.45
2017-05-27T04:21:48.046Z,1019.47
2017-05-27T04:22:58.064Z,1019.48
2017-05-27T04:24:08.341Z,1019.49
2017-05-27T04:25:18.639Z,1019.47
2017-05-27T04:26:28.919Z,1019.53
2017-05-27T04:27:39.136Z,1019.52
2017-05-27T04:28:49.427Z,1019.55
2017-05-27T04:29:59.148Z,1019.55
2017-05-27T04:31:09.427Z,1019.52
2017-05-27T04:32:19.713Z,1019.53
2017-05-27T04:33:29.992Z,1019.52
2017-05-27T04:34:40.626Z,1019.52
2017-05-27T04:35:50.593Z,1019.48
2017-05-27T04:37:00.257Z,1019.46
2017-05-27T04:38:10.535Z,1019.52
2017-05-27T04:39:21.068Z,1019.49
2017-05-27T04:40:31.347Z,1019.49
2017-05-27T04:41:41.638Z,1019.54
2017-05-27T04:42:51.605Z,1019.53
2017-05-27T04:44:01.592Z,1019.53
2017-05-27T04:45:11.818Z,1019.51
2017-05-27T04:46:22.100Z,1019.49
2017-05-27T04:47:32.083Z,1019.52
2017-05-27T04:48:42.374Z,1019.57
2017-05-27T04:49:52.346Z,1019.54
2017-05-27T04:51:02.888Z,1019.55
2017-05-27T04:52:13.166Z,1019.56
2017-05-27T04:53:23.454Z,1019.61
2017-05-27T04:54:33.734Z,1019.58
2017-05-27T04:55:44.025Z,1019.61
2017-05-27T04:56:54.246Z,1019.6
2017-05-27T04:58:04.246Z,1019.61
2017-05-27T04:59:14.222Z,1019.62
2017-05-27T05:00:24.505Z,1019.64
2017-05-27T05:01:34.472Z,1019.67
2017-05-27T05:02:45.002Z,1019.69
2017-05-27T05:03:55.284Z,1019.65
2017-05-27T05:05:05.244Z,1019.68
2017-05-27T05:06:15.532Z,1019.69
2017-05-27T05:07:25.821Z,1019.64
2017-05-27T05:08:36.414Z,1019.65
2017-05-27T05:09:46.694Z,1019.65
2017-05-27T05:10:56.982Z,1019.66
2017-05-27T05:12:07.256Z,1019.69
2017-05-27T05:13:17.527Z,1019.66
2017-05-27T05:14:27.756Z,1019.62
2017-05-27T05:15:38.067Z,1019.62
2017-05-27T05:16:48.345Z,1019.66
2017-05-27T05:17:58.636Z,1019.67
2017-05-27T05:19:08.935Z,1019.65
2017-05-27T05:20:19.521Z,1019.67
2017-05-27T05:21:29.803Z,1019.71
2017-05-27T05:22:40.079Z,1019.71
2017-05-27T05:23:50.046Z,1019.72
2017-05-27T05:25:00.328Z,1019.72
2017-05-27T05:26:10.548Z,1019.73
2017-05-27T05:27:20.524Z,1019.75
2017-05-27T05:28:30.805Z,1019.74
2017-05-27T05:29:41.094Z,1019.7
2017-05-27T05:30:51.381Z,1019.73
2017-05-27T05:32:01.621Z,1019.73
2017-05-27T05:33:11.590Z,1019.72
2017-05-27T05:34:21.870Z,1019.74
2017-05-27T05:35:31.230Z,1019.74
2017-05-27T05:36:40.888Z,1019.76
2017-05-27T05:37:51.426Z,1019.74
2017-05-27T05:39:01.865Z,1019.72
2017-05-27T05:40:11.834Z,1019.75
2017-05-27T05:41:22.111Z,1019.75
2017-05-27T05:42:32.398Z,1019.76
2017-05-27T05:43:42.629Z,1019.74
2017-05-27T05:44:52.907Z,1019.81
2017-05-27T05:46:02.880Z,1019.75
2017-05-27T05:47:13.157Z,1019.79
2017-05-27T05:48:23.449Z,1019.73
2017-05-27T05:49:33.680Z,1019.76
2017-05-27T05:50:43.963Z,1019.75
2017-05-27T05:51:54.248Z,1019.72
2017-05-27T05:53:03.922Z,1019.75
2017-05-27T05:54:13.906Z,1019.75
2017-05-27T05:55:24.445Z,1019.77
2017-05-27T05:56:34.413Z,1019.79
2017-05-27T05:57:44.712Z,1019.74
2017-05-27T05:58:54.995Z,1019.78
2017-05-27T06:00:05.288Z,1019.77
2017-05-27T06:01:14.888Z,1019.82
2017-05-27T06:02:25.200Z,1019.85
2017-05-27T06:03:35.483Z,1019.87
2017-05-27T06:04:45.767Z,1019.84
2017-05-27T06:05:55.746Z,1019.88
2017-05-27T06:07:06.273Z,1019.88
2017-05-27T06:08:16.601Z,1019.89
2017-05-27T06:09:26.888Z,1019.92
2017-05-27T06:10:36.864Z,1019.92
2017-05-27T06:11:47.155Z,1019.93
2017-05-27T06:12:57.383Z,1019.91
2017-05-27T06:14:07.677Z,1019.91
2017-05-27T06:15:17.956Z,1019.93
2017-05-27T06:16:28.247Z,1019.96
2017-05-27T06:17:38.533Z,1019.95
2017-05-27T06:18:48.437Z,1019.93
2017-05-27T06:19:58.401Z,1019.91
2017-05-27T06:21:08.690Z,1019.93
2017-05-27T06:22:18.667Z,1019.9
2017-05-27T06:23:28.952Z,1019.89
2017-05-27T06:24:39.181Z,1019.95
2017-05-27T06:25:49.156Z,1019.94
2017-05-27T06:26:59.133Z,1019.96
2017-05-27T06:28:09.413Z,1019.96
2017-05-27T06:29:19.710Z,1020
2017-05-27T06:30:30.258Z,1020.01
2017-05-27T06:31:39.914Z,1020.04
2017-05-27T06:32:50.196Z,1020.05
2017-05-27T06:34:01.128Z,1020.07
2017-05-27T06:35:11.421Z,1020.02
2017-05-27T06:36:21.949Z,1020.04
2017-05-27T06:37:32.237Z,1020
2017-05-27T06:38:42.209Z,1020.05
2017-05-27T06:39:52.500Z,1020.05
2017-05-27T06:41:02.185Z,1020.08
2017-05-27T06:42:12.726Z,1020.03
2017-05-27T06:43:23.022Z,1020.08
2017-05-27T06:44:33.304Z,1020.07
2017-05-27T06:45:43.276Z,1020.07
2017-05-27T06:46:53.556Z,1020.11
2017-05-27T06:48:04.089Z,1020.1
2017-05-27T06:49:14.382Z,1020.12
2017-05-27T06:50:23.722Z,1020.13
2017-05-27T06:51:33.694Z,1020.1
2017-05-27T06:52:43.976Z,1020.09
2017-05-27T06:53:54.517Z,1020.1
2017-05-27T06:55:04.587Z,1020.11
2017-05-27T06:56:14.576Z,1020.13
2017-05-27T06:57:24.859Z,1020.1
2017-05-27T06:58:35.151Z,1020.12
2017-05-27T06:59:45.380Z,1020.15
2017-05-27T07:00:55.668Z,1020.17
2017-05-27T07:02:05.651Z,1020.17
2017-05-27T07:03:15.946Z,1020.17
2017-05-27T07:04:26.239Z,1020.2
2017-05-27T07:05:36.773Z,1020.2
2017-05-27T07:06:46.752Z,1020.19
2017-05-27T07:07:56.717Z,1020.15
2017-05-27T07:09:06.807Z,1020.18
2017-05-27T07:10:17.092Z,1020.17
2017-05-27T07:11:27.627Z,1020.19
2017-05-27T07:12:37.663Z,1020.21
2017-05-27T07:13:47.950Z,1020.13
2017-05-27T07:14:58.287Z,1020.2
2017-05-27T07:16:08.585Z,1020.26
2017-05-27T07:17:19.167Z,1020.22
2017-05-27T07:18:29.462Z,1020.22
2017-05-27T07:19:39.741Z,1020.24
2017-05-27T07:20:49.732Z,1020.26
2017-05-27T07:22:00.023Z,1020.23
2017-05-27T07:23:10.563Z,1020.23
2017-05-27T07:24:20.854Z,1020.27
2017-05-27T07:25:31.140Z,1020.29
2017-05-27T07:26:41.421Z,1020.3
2017-05-27T07:27:51.705Z,1020.32
2017-05-27T07:29:01.924Z,1020.3
2017-05-27T07:30:11.895Z,1020.28
2017-05-27T07:31:22.199Z,1020.26
2017-05-27T07:32:32.471Z,1020.23
2017-05-27T07:33:42.862Z,1020.24
2017-05-27T07:34:53.396Z,1020.22
2017-05-27T07:36:03.686Z,1020.19
2017-05-27T07:37:13.976Z,1020.17
2017-05-27T07:38:23.964Z,1020.2
2017-05-27T07:39:34.269Z,1020.19
2017-05-27T07:40:44.494Z,1020.2
2017-05-27T07:41:54.482Z,1020.26
2017-05-27T07:43:04.761Z,1020.23
2017-05-27T07:44:14.745Z,1020.22
2017-05-27T07:45:24.729Z,1020.22
2017-05-27T07:46:35.018Z,1020.2
2017-05-27T07:47:45.244Z,1020.24
2017-05-27T07:48:55.521Z,1020.28
2017-05-27T07:50:05.801Z,1020.3
2017-05-27T07:51:15.770Z,1020.23
2017-05-27T07:52:26.305Z,1020.27
2017-05-27T07:53:36.275Z,1020.28
2017-05-27T07:54:46.556Z,1020.26
2017-05-27T07:55:56.837Z,1020.2
2017-05-27T07:57:06.805Z,1020.23
2017-05-27T07:58:17.351Z,1020.26
2017-05-27T07:59:27.653Z,1020.24
2017-05-27T08:00:37.642Z,1020.25
2017-05-27T08:01:46.992Z,1020.26
2017-05-27T08:02:56.969Z,1020.25
2017-05-27T08:04:07.502Z,1020.23
2017-05-27T08:05:17.786Z,1020.22
2017-05-27T08:06:28.082Z,1020.18
2017-05-27T08:07:38.051Z,1020.23
2017-05-27T08:08:48.342Z,1020.25
2017-05-27T08:09:58.890Z,1020.2
2017-05-27T08:11:09.190Z,1020.18
2017-05-27T08:12:19.469Z,1020.18
2017-05-27T08:13:29.146Z,1020.1
2017-05-27T08:14:39.480Z,1020.17
2017-05-27T08:15:50.025Z,1020.11
2017-05-27T08:17:00.095Z,1020.11
2017-05-27T08:18:10.379Z,1020.09
2017-05-27T08:19:20.664Z,1020.11
2017-05-27T08:20:30.331Z,1020.06
2017-05-27T08:21:40.875Z,1020.07
2017-05-27T08:22:51.183Z,1020.07
2017-05-27T08:24:01.156Z,1020.07
2017-05-27T08:25:11.129Z,1020.09
2017-05-27T08:26:21.419Z,1020.04
2017-05-27T08:27:31.647Z,1020.07
2017-05-27T08:28:41.975Z,1020.06
2017-05-27T08:29:51.952Z,1020.05
2017-05-27T08:31:02.243Z,1020.05
2017-05-27T08:32:12.529Z,1020.07
2017-05-27T08:33:23.074Z,1020.1
2017-05-27T08:34:33.367Z,1020.08
2017-05-27T08:35:43.648Z,1020.11
2017-05-27T08:36:53.624Z,1020.08
2017-05-27T08:38:03.916Z,1020.09
2017-05-27T08:39:14.132Z,1020.1
2017-05-27T08:40:24.419Z,1020.07
2017-05-27T08:41:34.400Z,1020.05
2017-05-27T08:42:44.372Z,1020.08
2017-05-27T08:43:54.664Z,1020.07
2017-05-27T08:45:05.197Z,1020.04
2017-05-27T08:46:14.859Z,1020.05
2017-05-27T08:47:25.157Z,1020.03
2017-05-27T08:48:35.458Z,1020.02
2017-05-27T08:49:45.764Z,1020.01
2017-05-27T08:50:55.992Z,1020.02
2017-05-27T08:52:06.284Z,1020.01
2017-05-27T08:53:16.556Z,1020.01
2017-05-27T08:54:25.911Z,1020.03
2017-05-27T08:55:35.885Z,1020
2017-05-27T08:56:46.114Z,1019.99
2017-05-27T08:57:56.098Z,1019.94
2017-05-27T08:59:06.074Z,1019.92
2017-05-27T09:00:16.054Z,1019.93
2017-05-27T09:01:26.344Z,1019.92
2017-05-27T09:02:36.564Z,1019.94
2017-05-27T09:03:46.552Z,1019.97
2017-05-27T09:04:56.525Z,1019.99
2017-05-27T09:06:06.837Z,1019.98
2017-05-27T09:07:17.121Z,1020.02
2017-05-27T09:08:27.354Z,1020.02
2017-05-27T09:09:37.643Z,1019.99
2017-05-27T09:10:47.630Z,1020.03
2017-05-27T09:11:57.291Z,1020.07
2017-05-27T09:13:07.580Z,1020.08
2017-05-27T09:14:17.494Z,1020.06
2017-05-27T09:15:27.782Z,1020.07
2017-05-27T09:16:38.074Z,1020.09
2017-05-27T09:17:48.364Z,1020.07
2017-05-27T09:18:58.651Z,1020.06
2017-05-27T09:20:09.238Z,1020.03
2017-05-27T09:21:19.546Z,1020.05
2017-05-27T09:22:29.840Z,1020.08
2017-05-27T09:23:40.281Z,1020.06
2017-05-27T09:24:50.248Z,1020.08
2017-05-27T09:26:00.476Z,1020.03
2017-05-27T09:27:10.757Z,1020.06
2017-05-27T09:28:21.103Z,1020.02
2017-05-27T09:29:31.443Z,1019.99
2017-05-27T09:30:41.720Z,1019.96
2017-05-27T09:31:51.639Z,1019.97
2017-05-27T09:33:01.618Z,1019.96
2017-05-27T09:34:11.903Z,1019.94
2017-05-27T09:35:22.197Z,1019.88
2017-05-27T09:36:32.475Z,1019.86
2017-05-27T09:37:42.716Z,1019.85
2017-05-27T09:38:53.057Z,1019.82
2017-05-27T09:40:03.354Z,1019.84
2017-05-27T09:41:13.635Z,1019.82
2017-05-27T09:42:23.617Z,1019.83
2017-05-27T09:43:34.149Z,1019.81
2017-05-27T09:44:45.131Z,1019.77
2017-05-27T09:45:55.430Z,1019.78
2017-05-27T09:47:05.409Z,1019.83
2017-05-27T09:48:15.713Z,1019.82
2017-05-27T09:49:26.250Z,1019.81
2017-05-27T09:50:36.223Z,1019.82
2017-05-27T09:51:46.519Z,1019.77
2017-05-27T09:52:56.804Z,1019.78
2017-05-27T09:54:06.819Z,1019.76
2017-05-27T09:55:16.732Z,1019.81
2017-05-27T09:56:27.021Z,1019.74
2017-05-27T09:57:37.334Z,1019.71
2017-05-27T09:58:47.631Z,1019.69
2017-05-27T09:59:57.289Z,1019.64
2017-05-27T10:01:07.548Z,1019.64
2017-05-27T10:02:17.852Z,1019.67
2017-05-27T10:03:28.139Z,1019.6
2017-05-27T10:04:37.804Z,1019.61
2017-05-27T10:05:47.784Z,1019.63
2017-05-27T10:06:58.374Z,1019.61
2017-05-27T10:08:08.398Z,1019.61
2017-05-27T10:09:18.368Z,1019.66
2017-05-27T10:10:28.660Z,1019.64
2017-05-27T10:11:38.629Z,1019.63
2017-05-27T10:12:48.544Z,1019.63
2017-05-27T10:13:58.833Z,1019.6
2017-05-27T10:15:08.519Z,1019.61
2017-05-27T10:16:18.812Z,1019.58
2017-05-27T10:17:28.782Z,1019.56
2017-05-27T10:18:39.312Z,1019.61
2017-05-27T10:19:49.655Z,1019.57
2017-05-27T10:20:59.945Z,1019.57
2017-05-27T10:22:09.970Z,1019.5
2017-05-27T10:23:20.257Z,1019.42
2017-05-27T10:24:30.793Z,1019.49
2017-05-27T10:25:41.075Z,1019.52
2017-05-27T10:26:51.374Z,1019.53
2017-05-27T10:28:01.667Z,1019.57
2017-05-27T10:29:11.953Z,1019.58
2017-05-27T10:30:22.500Z,1019.58
2017-05-27T10:31:32.175Z,1019.59
2017-05-27T10:32:42.450Z,1019.64
2017-05-27T10:33:52.737Z,1019.58
2017-05-27T10:35:03.019Z,1019.55
2017-05-27T10:36:13.234Z,1019.49
2017-05-27T10:37:23.222Z,1019.48
2017-05-27T10:38:33.503Z,1019.46
2017-05-27T10:39:43.786Z,1019.46
2017-05-27T10:40:54.075Z,1019.44
2017-05-27T10:42:04.615Z,1019.41
2017-05-27T10:43:14.896Z,1019.38
2017-05-27T10:44:24.873Z,1019.4
2017-05-27T10:45:35.156Z,1019.43
2017-05-27T10:46:45.438Z,1019.42
2017-05-27T10:47:55.961Z,1019.46
2017-05-27T10:49:05.938Z,1019.46
2017-05-27T10:50:16.225Z,1019.48
2017-05-27T10:51:26.512Z,1019.52
2017-05-27T10:52:36.792Z,1019.45
2017-05-27T10:53:47.327Z,1019.48
2017-05-27T10:54:57.608Z,1019.46
2017-05-27T10:56:07.888Z,1019.45
2017-05-27T10:57:18.166Z,1019.41
2017-05-27T10:58:28.167Z,1019.42
2017-05-27T10:59:38.704Z,1019.4
2017-05-27T11:00:49.000Z,1019.42
2017-05-27T11:01:58.663Z,1019.42
2017-05-27T11:03:08.947Z,1019.37
2017-05-27T11:04:19.228Z,1019.35
2017-05-27T11:05:29.766Z,1019.37
2017-05-27T11:06:40.045Z,1019.32
2017-05-27T11:07:50.030Z,1019.26
2017-05-27T11:09:00.316Z,1019.29
2017-05-27T11:10:10.609Z,1019.26
2017-05-27T11:11:21.140Z,1019.25
2017-05-27T11:12:31.426Z,1019.22
2017-05-27T11:13:41.408Z,1019.21
2017-05-27T11:14:51.373Z,1019.18
2017-05-27T11:16:01.668Z,1019.18
2017-05-27T11:17:12.199Z,1019.19
2017-05-27T11:18:22.172Z,1019.18
2017-05-27T11:19:32.445Z,1019.16
2017-05-27T11:20:42.736Z,1019.11
2017-05-27T11:21:53.015Z,1019.1
2017-05-27T11:23:03.254Z,1019.08
2017-05-27T11:24:12.926Z,1019.1
2017-05-27T11:25:23.211Z,1019.08
2017-05-27T11:26:33.513Z,1019.13
2017-05-27T11:27:43.800Z,1019.07
2017-05-27T11:28:54.360Z,1019.1
2017-05-27T11:30:04.346Z,1019.09
2017-05-27T11:31:14.320Z,1019.08
2017-05-27T11:32:24.604Z,1018.97
2017-05-27T11:33:34.891Z,1019.03
2017-05-27T11:34:45.426Z,1019.01
2017-05-27T11:35:56.087Z,1019.03
2017-05-27T11:37:06.100Z,1019.02
2017-05-27T11:38:16.389Z,1018.97
2017-05-27T11:39:26.665Z,1018.99
2017-05-27T11:40:36.895Z,1018.94
2017-05-27T11:41:47.179Z,1018.94
2017-05-27T11:42:57.467Z,1018.95
2017-05-27T11:44:07.748Z,1018.94
2017-05-27T11:45:17.713Z,1018.95
2017-05-27T11:46:28.248Z,1018.92
2017-05-27T11:47:38.212Z,1018.92
2017-05-27T11:48:48.500Z,1018.93
2017-05-27T11:49:58.794Z,1018.93
2017-05-27T11:51:08.458Z,1018.97
2017-05-27T11:52:19.012Z,1018.93
2017-05-27T11:53:29.295Z,1018.92
2017-05-27T11:54:39.577Z,1018.89
2017-05-27T11:55:49.918Z,1018.87
2017-05-27T11:56:59.594Z,1018.89
2017-05-27T11:58:09.819Z,1018.88
2017-05-27T11:59:19.799Z,1018.87
2017-05-27T12:00:30.073Z,1018.77
2017-05-27T12:01:40.372Z,1018.78
2017-05-27T12:02:50.652Z,1018.75
2017-05-27T12:04:01.220Z,1018.72
2017-05-27T12:05:11.756Z,1018.77
2017-05-27T12:06:22.036Z,1018.76
2017-05-27T12:07:32.322Z,1018.71
2017-05-27T12:08:42.293Z,1018.68
2017-05-27T12:09:52.820Z,1018.72
2017-05-27T12:11:03.096Z,1018.72
2017-05-27T12:12:13.080Z,1018.69
2017-05-27T12:13:23.370Z,1018.72
2017-05-27T12:14:33.847Z,1018.76
2017-05-27T12:15:44.093Z,1018.73
2017-05-27T12:16:54.376Z,1018.76
2017-05-27T12:18:04.656Z,1018.73
2017-05-27T12:19:14.942Z,1018.76
2017-05-27T12:20:25.221Z,1018.77
2017-05-27T12:21:35.773Z,1018.74
2017-05-27T12:22:46.056Z,1018.77
2017-05-27T12:23:56.035Z,1018.73
2017-05-27T12:25:06.327Z,1018.7
2017-05-27T12:26:16.606Z,1018.68
2017-05-27T12:27:27.134Z,1018.73
2017-05-27T12:28:37.425Z,1018.77
2017-05-27T12:29:47.699Z,1018.73
2017-05-27T12:30:57.977Z,1018.68
2017-05-27T12:32:08.265Z,1018.69
2017-05-27T12:33:18.489Z,1018.63
2017-05-27T12:34:28.777Z,1018.64
2017-05-27T12:35:39.075Z,1018.66
2017-05-27T12:36:49.048Z,1018.62
2017-05-27T12:37:59.343Z,1018.6
2017-05-27T12:39:09.612Z,1018.57
2017-05-27T12:40:19.895Z,1018.55
2017-05-27T12:41:29.559Z,1018.56
2017-05-27T12:42:39.838Z,1018.63
2017-05-27T12:43:50.125Z,1018.56
2017-05-27T12:45:00.665Z,1018.61
2017-05-27T12:46:10.942Z,1018.55
2017-05-27T12:47:21.240Z,1018.58
2017-05-27T12:48:31.527Z,1018.59
2017-05-27T12:49:41.812Z,1018.59
2017-05-27T12:50:52.353Z,1018.57
2017-05-27T12:52:02.693Z,1018.56
2017-05-27T12:53:12.981Z,1018.55
2017-05-27T12:54:23.263Z,1018.53
2017-05-27T12:55:33.247Z,1018.52
2017-05-27T12:56:43.793Z,1018.57
2017-05-27T12:57:54.077Z,1018.58
2017-05-27T12:59:04.375Z,1018.54
2017-05-27T13:00:14.354Z,1018.54
2017-05-27T13:01:24.647Z,1018.5
2017-05-27T13:02:35.190Z,1018.47
2017-05-27T13:03:45.466Z,1018.43
2017-05-27T13:04:55.751Z,1018.46
2017-05-27T13:06:05.720Z,1018.38
2017-05-27T13:07:15.709Z,1018.37
2017-05-27T13:08:26.259Z,1018.33
2017-05-27T13:09:36.546Z,1018.33
2017-05-27T13:10:47.064Z,1018.32
2017-05-27T13:11:57.036Z,1018.33
2017-05-27T13:13:07.013Z,1018.31
2017-05-27T13:14:17.245Z,1018.31
2017-05-27T13:15:27.525Z,1018.32
2017-05-27T13:16:37.505Z,1018.25
2017-05-27T13:17:47.787Z,1018.2
2017-05-27T13:18:58.067Z,1018.21
2017-05-27T13:20:08.600Z,1018.23
2017-05-27T13:21:18.952Z,1018.19
2017-05-27T13:22:29.233Z,1018.14
2017-05-27T13:23:39.620Z,1018.12
2017-05-27T13:24:49.931Z,1018.13
2017-05-27T13:26:00.467Z,1018.1
2017-05-27T13:27:10.766Z,1018.05
2017-05-27T13:28:20.422Z,1018.09
2017-05-27T13:29:30.724Z,1018.05
2017-05-27T13:30:41.005Z,1018.09
2017-05-27T13:31:51.536Z,1018.02
2017-05-27T13:33:01.837Z,1018.05
2017-05-27T13:34:12.122Z,1018.01
2017-05-27T13:35:21.782Z,1018.04
2017-05-27T13:36:32.077Z,1018.04
2017-05-27T13:37:42.606Z,1018.03
2017-05-27T13:38:52.584Z,1018.09
2017-05-27T13:40:03.018Z,1018.07
2017-05-27T13:41:12.677Z,1018.06
2017-05-27T13:42:22.987Z,1018.03
2017-05-27T13:43:33.227Z,1018.02
2017-05-27T13:44:43.526Z,1018
2017-05-27T13:45:53.809Z,1017.95
2017-05-27T13:47:03.482Z,1017.97
2017-05-27T13:48:13.767Z,1017.94
2017-05-27T13:49:23.988Z,1017.94
2017-05-27T13:50:34.293Z,1017.99
2017-05-27T13:51:44.285Z,1018
2017-05-27T13:52:54.569Z,1017.93
2017-05-27T13:54:04.879Z,1017.92
2017-05-27T13:55:15.240Z,1017.87
2017-05-27T13:56:25.534Z,1017.86
2017-05-27T13:57:35.498Z,1017.87
2017-05-27T13:58:45.466Z,1017.87
2017-05-27T13:59:55.451Z,1017.86
2017-05-27T14:01:05.824Z,1017.85
2017-05-27T14:02:16.113Z,1017.84
2017-05-27T14:03:26.088Z,1017.83
2017-05-27T14:04:36.382Z,1017.83
2017-05-27T14:05:46.665Z,1017.81
2017-05-27T14:06:56.579Z,1017.81
2017-05-27T14:08:06.569Z,1017.81
2017-05-27T14:09:16.235Z,1017.77
2017-05-27T14:10:26.531Z,1017.77
2017-05-27T14:11:36.813Z,1017.78